Terminal Aerodrome Forecast
Issued by NWS Bismarck, ND

Home | Current Version | Previous Version | Text Only | Print | Product List | Glossary On
Versions: 1 2 3 4 5 6 7 8 9 10 11 12 13 14 15 16 17 18 19 20 21
000
FTUS43 KBIS 201100
TAFISN
TAF
KISN 201125Z 2012/2112 13003KT P6SM BKN180
     FM201400 22008KT P6SM BKN150
     FM201730 27017G23KT P6SM SCT090 BKN110
     FM201900 28020G27KT P6SM VCSH BKN080
     FM202200 28021G26KT P6SM SCT080 BKN120
     FM210200 28011KT P6SM SKC=

USA.gov is the U.S. government's official web portal to all federal, state and local government web resources and services.